sensor_id;sensor_type;location;lat;lon;timestamp;P1;durP1;ratioP1;P2;durP2;ratioP2
6951;SDS011;3515;50.138;8.502;2022-07-05T00:00:23;12;;;6;;
6951;SDS011;3515;50.138;8.502;2022-07-05T00:02:48;11;;;5;;
6951;SDS011;3515;50.138;8.502;2022-07-05T00:05:13;11;;;5;;
6951;SDS011;3515;50.138;8.502;2022-07-05T00:07:39;11;;;4;;
6951;SDS011;3515;50.138;8.502;2022-07-05T00:10:04;11;;;4;;
6951;SDS011;3515;50.138;8.502;2022-07-05T00:12:30;11;;;4;;
6951;SDS011;3515;50.138;8.502;2022-07-05T00:14:54;11;;;4;;
6951;SDS011;3515;50.138;8.502;2022-07-05T00:17:20;12;;;4;;
6951;SDS011;3515;50.138;8.502;2022-07-05T00:19:45;12;;;4;;
6951;SDS011;3515;50.138;8.502;2022-07-05T00:22:10;17;;;7;;
6951;SDS011;3515;50.138;8.502;2022-07-05T00:24:36;17;;;8;;
6951;SDS011;3515;50.138;8.502;2022-07-05T00:27:01;18;;;8;;
6951;SDS011;3515;50.138;8.502;2022-07-05T00:29:26;18;;;8;;
6951;SDS011;3515;50.138;8.502;2022-07-05T00:31:51;18;;;8;;
6951;SDS011;3515;50.138;8.502;2022-07-05T00:34:17;17;;;8;;
6951;SDS011;3515;50.138;8.502;2022-07-05T00:36:42;17;;;8;;
6951;SDS011;3515;50.138;8.502;2022-07-05T00:39:08;17;;;8;;
6951;SDS011;3515;50.138;8.502;2022-07-05T00:41:33;17;;;8;;
6951;SDS011;3515;50.138;8.502;2022-07-05T00:43:59;17;;;7;;
6951;SDS011;3515;50.138;8.502;2022-07-05T00:46:23;21;;;10;;
6951;SDS011;3515;50.138;8.502;2022-07-05T00:48:49;21;;;10;;
6951;SDS011;3515;50.138;8.502;2022-07-05T00:51:14;21;;;10;;
6951;SDS011;3515;50.138;8.502;2022-07-05T00:53:39;25;;;12;;
6951;SDS011;3515;50.138;8.502;2022-07-05T00:56:05;25;;;13;;
6951;SDS011;3515;50.138;8.502;2022-07-05T00:58:30;25;;;13;;
6951;SDS011;3515;50.138;8.502;2022-07-05T01:00:55;24;;;13;;
6951;SDS011;3515;50.138;8.502;2022-07-05T01:03:21;25;;;13;;
6951;SDS011;3515;50.138;8.502;2022-07-05T01:05:46;25;;;13;;
6951;SDS011;3515;50.138;8.502;2022-07-05T01:08:11;26;;;13;;
6951;SDS011;3515;50.138;8.502;2022-07-05T01:10:43;27;;;13;;
6951;SDS011;3515;50.138;8.502;2022-07-05T01:13:07;28;;;13;;
6951;SDS011;3515;50.138;8.502;2022-07-05T01:15:32;28;;;13;;
6951;SDS011;3515;50.138;8.502;2022-07-05T01:17:58;28;;;13;;
6951;SDS011;3515;50.138;8.502;2022-07-05T01:20:23;23;;;10;;
6951;SDS011;3515;50.138;8.502;2022-07-05T01:22:50;25;;;12;;
6951;SDS011;3515;50.138;8.502;2022-07-05T01:25:14;21;;;10;;
6951;SDS011;3515;50.138;8.502;2022-07-05T01:27:39;20;;;9;;
6951;SDS011;3515;50.138;8.502;2022-07-05T01:30:04;20;;;9;;
6951;SDS011;3515;50.138;8.502;2022-07-05T01:32:29;16;;;6;;
6951;SDS011;3515;50.138;8.502;2022-07-05T01:34:55;15;;;6;;
6951;SDS011;3515;50.138;8.502;2022-07-05T01:37:20;18;;;8;;
6951;SDS011;3515;50.138;8.502;2022-07-05T01:39:45;18;;;8;;
6951;SDS011;3515;50.138;8.502;2022-07-05T01:42:10;14;;;6;;
6951;SDS011;3515;50.138;8.502;2022-07-05T01:44:36;14;;;5;;
6951;SDS011;3515;50.138;8.502;2022-07-05T01:47:03;13;;;5;;
6951;SDS011;3515;50.138;8.502;2022-07-05T01:49:26;12;;;4;;
6951;SDS011;3515;50.138;8.502;2022-07-05T01:51:54;12;;;4;;
6951;SDS011;3515;50.138;8.502;2022-07-05T01:54:18;12;;;4;;
6951;SDS011;3515;50.138;8.502;2022-07-05T01:56:42;8;;;2;;
6951;SDS011;3515;50.138;8.502;2022-07-05T01:59:08;11;;;4;;
6951;SDS011;3515;50.138;8.502;2022-07-05T02:01:33;11;;;4;;
6951;SDS011;3515;50.138;8.502;2022-07-05T02:03:58;11;;;4;;
6951;SDS011;3515;50.138;8.502;2022-07-05T02:06:24;14;;;6;;
6951;SDS011;3515;50.138;8.502;2022-07-05T02:08:49;15;;;7;;
6951;SDS011;3515;50.138;8.502;2022-07-05T02:11:14;15;;;7;;
6951;SDS011;3515;50.138;8.502;2022-07-05T02:13:39;15;;;7;;
6951;SDS011;3515;50.138;8.502;2022-07-05T02:16:05;15;;;7;;
6951;SDS011;3515;50.138;8.502;2022-07-05T02:18:30;11;;;4;;
6951;SDS011;3515;50.138;8.502;2022-07-05T02:20:55;10;;;4;;
6951;SDS011;3515;50.138;8.502;2022-07-05T02:23:20;9;;;4;;
6951;SDS011;3515;50.138;8.502;2022-07-05T02:25:46;6;;;1;;
6951;SDS011;3515;50.138;8.502;2022-07-05T02:28:11;6;;;1;;
6951;SDS011;3515;50.138;8.502;2022-07-05T02:30:36;5;;;1;;
6951;SDS011;3515;50.138;8.502;2022-07-05T02:33:02;7;;;2;;
6951;SDS011;3515;50.138;8.502;2022-07-05T02:35:27;8;;;2;;
6951;SDS011;3515;50.138;8.502;2022-07-05T02:37:52;8;;;2;;
6951;SDS011;3515;50.138;8.502;2022-07-05T02:40:17;9;;;2;;
6951;SDS011;3515;50.138;8.502;2022-07-05T02:42:43;9;;;2;;
6951;SDS011;3515;50.138;8.502;2022-07-05T02:45:08;8;;;2;;
6951;SDS011;3515;50.138;8.502;2022-07-05T02:47:34;7;;;2;;
6951;SDS011;3515;50.138;8.502;2022-07-05T02:49:59;9;;;3;;
6951;SDS011;3515;50.138;8.502;2022-07-05T02:52:24;7;;;2;;
6951;SDS011;3515;50.138;8.502;2022-07-05T02:54:49;6;;;1;;
6951;SDS011;3515;50.138;8.502;2022-07-05T02:57:14;6;;;1;;
6951;SDS011;3515;50.138;8.502;2022-07-05T02:59:40;5;;;1;;
6951;SDS011;3515;50.138;8.502;2022-07-05T03:02:05;7;;;2;;
6951;SDS011;3515;50.138;8.502;2022-07-05T03:04:30;7;;;2;;
6951;SDS011;3515;50.138;8.502;2022-07-05T03:07:00;9;;;4;;
6951;SDS011;3515;50.138;8.502;2022-07-05T03:09:26;7;;;3;;
6951;SDS011;3515;50.138;8.502;2022-07-05T03:11:51;7;;;2;;
6951;SDS011;3515;50.138;8.502;2022-07-05T03:14:16;7;;;2;;
6951;SDS011;3515;50.138;8.502;2022-07-05T03:16:41;7;;;2;;
6951;SDS011;3515;50.138;8.502;2022-07-05T03:19:07;9;;;3;;
6951;SDS011;3515;50.138;8.502;2022-07-05T03:21:32;7;;;2;;
6951;SDS011;3515;50.138;8.502;2022-07-05T03:23:57;7;;;2;;
6951;SDS011;3515;50.138;8.502;2022-07-05T03:26:22;4;;;1;;
6951;SDS011;3515;50.138;8.502;2022-07-05T03:28:48;4;;;1;;
6951;SDS011;3515;50.138;8.502;2022-07-05T03:31:13;4;;;1;;
6951;SDS011;3515;50.138;8.502;2022-07-05T03:33:38;3;;;1;;
6951;SDS011;3515;50.138;8.502;2022-07-05T03:36:04;4;;;1;;
6951;SDS011;3515;50.138;8.502;2022-07-05T03:38:29;2;;;0;;
6951;SDS011;3515;50.138;8.502;2022-07-05T03:40:54;3;;;1;;
6951;SDS011;3515;50.138;8.502;2022-07-05T03:43:19;4;;;1;;
6951;SDS011;3515;50.138;8.502;2022-07-05T03:45:45;3;;;1;;
6951;SDS011;3515;50.138;8.502;2022-07-05T03:48:13;4;;;1;;
6951;SDS011;3515;50.138;8.502;2022-07-05T03:50:38;4;;;1;;
6951;SDS011;3515;50.138;8.502;2022-07-05T03:53:04;4;;;1;;
6951;SDS011;3515;50.138;8.502;2022-07-05T03:55:29;4;;;1;;
6951;SDS011;3515;50.138;8.502;2022-07-05T03:57:54;4;;;1;;
6951;SDS011;3515;50.138;8.502;2022-07-05T04:00:19;3;;;0;;
6951;SDS011;3515;50.138;8.502;2022-07-05T04:02:45;2;;;0;;
6951;SDS011;3515;50.138;8.502;2022-07-05T04:05:10;3;;;0;;
6951;SDS011;3515;50.138;8.502;2022-07-05T04:07:48;4;;;1;;
6951;SDS011;3515;50.138;8.502;2022-07-05T04:10:06;4;;;1;;
6951;SDS011;3515;50.138;8.502;2022-07-05T04:12:30;6;;;2;;
6951;SDS011;3515;50.138;8.502;2022-07-05T04:14:55;6;;;2;;
6951;SDS011;3515;50.138;8.502;2022-07-05T04:17:21;6;;;2;;
6951;SDS011;3515;50.138;8.502;2022-07-05T04:19:46;6;;;2;;
6951;SDS011;3515;50.138;8.502;2022-07-05T04:22:11;6;;;2;;
6951;SDS011;3515;50.138;8.502;2022-07-05T04:24:36;6;;;2;;
6951;SDS011;3515;50.138;8.502;2022-07-05T04:27:02;4;;;1;;
6951;SDS011;3515;50.138;8.502;2022-07-05T04:29:27;6;;;2;;
6951;SDS011;3515;50.138;8.502;2022-07-05T04:31:52;4;;;1;;
6951;SDS011;3515;50.138;8.502;2022-07-05T04:34:18;5;;;1;;
6951;SDS011;3515;50.138;8.502;2022-07-05T04:36:43;4;;;1;;
6951;SDS011;3515;50.138;8.502;2022-07-05T04:39:08;5;;;1;;
6951;SDS011;3515;50.138;8.502;2022-07-05T04:41:33;5;;;1;;
6951;SDS011;3515;50.138;8.502;2022-07-05T04:43:58;5;;;1;;
6951;SDS011;3515;50.138;8.502;2022-07-05T04:46:24;5;;;1;;
6951;SDS011;3515;50.138;8.502;2022-07-05T04:48:49;3;;;0;;
6951;SDS011;3515;50.138;8.502;2022-07-05T04:51:14;3;;;0;;
6951;SDS011;3515;50.138;8.502;2022-07-05T04:53:39;3;;;0;;
6951;SDS011;3515;50.138;8.502;2022-07-05T04:56:05;3;;;0;;
6951;SDS011;3515;50.138;8.502;2022-07-05T04:58:30;3;;;0;;
6951;SDS011;3515;50.138;8.502;2022-07-05T05:00:55;3;;;0;;
6951;SDS011;3515;50.138;8.502;2022-07-05T05:03:20;3;;;0;;
6951;SDS011;3515;50.138;8.502;2022-07-05T05:05:46;3;;;0;;
6951;SDS011;3515;50.138;8.502;2022-07-05T05:08:11;4;;;0;;
6951;SDS011;3515;50.138;8.502;2022-07-05T05:10:43;4;;;0;;
6951;SDS011;3515;50.138;8.502;2022-07-05T05:13:06;4;;;0;;
6951;SDS011;3515;50.138;8.502;2022-07-05T05:15:32;4;;;0;;
6951;SDS011;3515;50.138;8.502;2022-07-05T05:17:57;4;;;1;;
6951;SDS011;3515;50.138;8.502;2022-07-05T05:20:22;4;;;1;;
6951;SDS011;3515;50.138;8.502;2022-07-05T05:22:47;4;;;1;;
6951;SDS011;3515;50.138;8.502;2022-07-05T05:25:13;4;;;1;;
6951;SDS011;3515;50.138;8.502;2022-07-05T05:27:42;4;;;1;;
6951;SDS011;3515;50.138;8.502;2022-07-05T05:30:04;4;;;1;;
6951;SDS011;3515;50.138;8.502;2022-07-05T05:32:28;5;;;1;;
6951;SDS011;3515;50.138;8.502;2022-07-05T05:34:53;5;;;2;;
6951;SDS011;3515;50.138;8.502;2022-07-05T05:37:19;6;;;2;;
6951;SDS011;3515;50.138;8.502;2022-07-05T05:39:44;7;;;3;;
6951;SDS011;3515;50.138;8.502;2022-07-05T05:42:09;8;;;3;;
6951;SDS011;3515;50.138;8.502;2022-07-05T05:44:35;8;;;4;;
6951;SDS011;3515;50.138;8.502;2022-07-05T05:47:00;9;;;4;;
6951;SDS011;3515;50.138;8.502;2022-07-05T05:49:25;9;;;4;;
6951;SDS011;3515;50.138;8.502;2022-07-05T05:51:50;10;;;5;;
6951;SDS011;3515;50.138;8.502;2022-07-05T05:54:16;10;;;5;;
6951;SDS011;3515;50.138;8.502;2022-07-05T05:56:41;10;;;5;;
6951;SDS011;3515;50.138;8.502;2022-07-05T05:59:06;15;;;8;;
6951;SDS011;3515;50.138;8.502;2022-07-05T06:01:32;16;;;9;;
6951;SDS011;3515;50.138;8.502;2022-07-05T06:03:57;18;;;9;;
6951;SDS011;3515;50.138;8.502;2022-07-05T06:06:22;19;;;9;;
6951;SDS011;3515;50.138;8.502;2022-07-05T06:08:47;19;;;9;;
6951;SDS011;3515;50.138;8.502;2022-07-05T06:11:12;19;;;9;;
6951;SDS011;3515;50.138;8.502;2022-07-05T06:13:38;19;;;9;;
6951;SDS011;3515;50.138;8.502;2022-07-05T06:16:05;19;;;9;;
6951;SDS011;3515;50.138;8.502;2022-07-05T06:18:28;14;;;6;;
6951;SDS011;3515;50.138;8.502;2022-07-05T06:20:53;12;;;5;;
6951;SDS011;3515;50.138;8.502;2022-07-05T06:23:19;11;;;5;;
6951;SDS011;3515;50.138;8.502;2022-07-05T06:25:44;11;;;5;;
6951;SDS011;3515;50.138;8.502;2022-07-05T06:28:09;11;;;6;;
6951;SDS011;3515;50.138;8.502;2022-07-05T06:30:35;13;;;6;;
6951;SDS011;3515;50.138;8.502;2022-07-05T06:33:00;18;;;9;;
6951;SDS011;3515;50.138;8.502;2022-07-05T06:35:25;19;;;9;;
6951;SDS011;3515;50.138;8.502;2022-07-05T06:37:51;20;;;10;;
6951;SDS011;3515;50.138;8.502;2022-07-05T06:40:17;23;;;11;;
6951;SDS011;3515;50.138;8.502;2022-07-05T06:42:41;24;;;12;;
6951;SDS011;3515;50.138;8.502;2022-07-05T06:45:06;26;;;12;;
6951;SDS011;3515;50.138;8.502;2022-07-05T06:47:31;27;;;13;;
6951;SDS011;3515;50.138;8.502;2022-07-05T06:49:57;28;;;13;;
6951;SDS011;3515;50.138;8.502;2022-07-05T06:52:22;25;;;11;;
6951;SDS011;3515;50.138;8.502;2022-07-05T06:54:47;25;;;11;;
6951;SDS011;3515;50.138;8.502;2022-07-05T06:57:13;27;;;11;;
6951;SDS011;3515;50.138;8.502;2022-07-05T06:59:38;27;;;11;;
6951;SDS011;3515;50.138;8.502;2022-07-05T07:02:03;29;;;12;;
6951;SDS011;3515;50.138;8.502;2022-07-05T07:04:28;29;;;12;;
6951;SDS011;3515;50.138;8.502;2022-07-05T07:06:54;30;;;13;;
6951;SDS011;3515;50.138;8.502;2022-07-05T07:09:19;30;;;12;;
6951;SDS011;3515;50.138;8.502;2022-07-05T07:11:44;31;;;13;;
6951;SDS011;3515;50.138;8.502;2022-07-05T07:14:09;33;;;14;;
6951;SDS011;3515;50.138;8.502;2022-07-05T07:16:35;33;;;14;;
6951;SDS011;3515;50.138;8.502;2022-07-05T07:19:00;32;;;13;;
6951;SDS011;3515;50.138;8.502;2022-07-05T07:21:25;29;;;12;;
6951;SDS011;3515;50.138;8.502;2022-07-05T07:23:50;28;;;12;;
6951;SDS011;3515;50.138;8.502;2022-07-05T07:26:16;27;;;11;;
6951;SDS011;3515;50.138;8.502;2022-07-05T07:28:41;28;;;11;;
6951;SDS011;3515;50.138;8.502;2022-07-05T07:31:07;28;;;11;;
6951;SDS011;3515;50.138;8.502;2022-07-05T07:33:32;27;;;11;;
6951;SDS011;3515;50.138;8.502;2022-07-05T07:35:57;28;;;12;;
6951;SDS011;3515;50.138;8.502;2022-07-05T07:38:22;28;;;12;;
6951;SDS011;3515;50.138;8.502;2022-07-05T07:40:48;29;;;12;;
6951;SDS011;3515;50.138;8.502;2022-07-05T07:43:13;29;;;13;;
6951;SDS011;3515;50.138;8.502;2022-07-05T07:45:38;29;;;12;;
6951;SDS011;3515;50.138;8.502;2022-07-05T07:48:03;28;;;12;;
6951;SDS011;3515;50.138;8.502;2022-07-05T07:50:29;27;;;12;;
6951;SDS011;3515;50.138;8.502;2022-07-05T07:52:54;25;;;11;;
6951;SDS011;3515;50.138;8.502;2022-07-05T07:55:19;24;;;10;;
6951;SDS011;3515;50.138;8.502;2022-07-05T07:57:44;24;;;10;;
6951;SDS011;3515;50.138;8.502;2022-07-05T08:00:10;25;;;10;;
6951;SDS011;3515;50.138;8.502;2022-07-05T08:02:35;24;;;10;;
6951;SDS011;3515;50.138;8.502;2022-07-05T08:05:00;25;;;10;;
6951;SDS011;3515;50.138;8.502;2022-07-05T08:07:25;28;;;11;;
6951;SDS011;3515;50.138;8.502;2022-07-05T08:09:51;31;;;13;;
6951;SDS011;3515;50.138;8.502;2022-07-05T08:12:16;33;;;14;;
6951;SDS011;3515;50.138;8.502;2022-07-05T08:14:41;33;;;14;;
6951;SDS011;3515;50.138;8.502;2022-07-05T08:17:06;34;;;15;;
6951;SDS011;3515;50.138;8.502;2022-07-05T08:19:32;34;;;15;;
6951;SDS011;3515;50.138;8.502;2022-07-05T08:21:57;37;;;16;;
6951;SDS011;3515;50.138;8.502;2022-07-05T08:24:22;38;;;17;;
6951;SDS011;3515;50.138;8.502;2022-07-05T08:26:47;36;;;16;;
6951;SDS011;3515;50.138;8.502;2022-07-05T08:29:13;35;;;14;;
6951;SDS011;3515;50.138;8.502;2022-07-05T08:31:38;33;;;13;;
6951;SDS011;3515;50.138;8.502;2022-07-05T08:34:03;34;;;13;;
6951;SDS011;3515;50.138;8.502;2022-07-05T08:36:29;34;;;13;;
6951;SDS011;3515;50.138;8.502;2022-07-05T08:38:54;33;;;13;;
6951;SDS011;3515;50.138;8.502;2022-07-05T08:41:20;34;;;14;;
6951;SDS011;3515;50.138;8.502;2022-07-05T08:43:45;36;;;15;;
6951;SDS011;3515;50.138;8.502;2022-07-05T08:46:10;36;;;16;;
6951;SDS011;3515;50.138;8.502;2022-07-05T08:48:36;38;;;17;;
6951;SDS011;3515;50.138;8.502;2022-07-05T08:51:00;36;;;16;;
6951;SDS011;3515;50.138;8.502;2022-07-05T08:53:25;34;;;15;;
6951;SDS011;3515;50.138;8.502;2022-07-05T08:55:51;32;;;14;;
6951;SDS011;3515;50.138;8.502;2022-07-05T08:58:16;30;;;13;;
6951;SDS011;3515;50.138;8.502;2022-07-05T09:00:42;25;;;11;;
6951;SDS011;3515;50.138;8.502;2022-07-05T09:03:13;22;;;9;;
6951;SDS011;3515;50.138;8.502;2022-07-05T09:05:39;18;;;7;;
6951;SDS011;3515;50.138;8.502;2022-07-05T09:08:04;14;;;5;;
6951;SDS011;3515;50.138;8.502;2022-07-05T09:10:30;13;;;5;;
6951;SDS011;3515;50.138;8.502;2022-07-05T09:12:54;13;;;4;;
6951;SDS011;3515;50.138;8.502;2022-07-05T09:15:20;12;;;4;;
6951;SDS011;3515;50.138;8.502;2022-07-05T09:17:45;13;;;5;;
6951;SDS011;3515;50.138;8.502;2022-07-05T09:20:11;12;;;4;;
6951;SDS011;3515;50.138;8.502;2022-07-05T09:22:45;12;;;4;;
6951;SDS011;3515;50.138;8.502;2022-07-05T09:27:26;11;;;4;;
6951;SDS011;3515;50.138;8.502;2022-07-05T09:29:53;11;;;4;;
6951;SDS011;3515;50.138;8.502;2022-07-05T09:32:22;11;;;4;;
6951;SDS011;3515;50.138;8.502;2022-07-05T09:34:42;13;;;5;;
6951;SDS011;3515;50.138;8.502;2022-07-05T09:37:07;11;;;4;;
6951;SDS011;3515;50.138;8.502;2022-07-05T09:39:34;12;;;4;;
6951;SDS011;3515;50.138;8.502;2022-07-05T09:44:24;13;;;5;;
6951;SDS011;3515;50.138;8.502;2022-07-05T09:46:48;15;;;5;;
6951;SDS011;3515;50.138;8.502;2022-07-05T09:49:13;15;;;5;;
6951;SDS011;3515;50.138;8.502;2022-07-05T09:51:46;15;;;5;;
6951;SDS011;3515;50.138;8.502;2022-07-05T09:54:04;15;;;5;;
6951;SDS011;3515;50.138;8.502;2022-07-05T09:56:29;15;;;5;;
6951;SDS011;3515;50.138;8.502;2022-07-05T09:58:54;15;;;5;;
6951;SDS011;3515;50.138;8.502;2022-07-05T10:01:23;14;;;5;;
6951;SDS011;3515;50.138;8.502;2022-07-05T10:03:51;14;;;5;;
6951;SDS011;3515;50.138;8.502;2022-07-05T10:06:10;12;;;4;;
6951;SDS011;3515;50.138;8.502;2022-07-05T10:08:35;11;;;4;;
6951;SDS011;3515;50.138;8.502;2022-07-05T10:11:00;10;;;3;;
6951;SDS011;3515;50.138;8.502;2022-07-05T10:13:26;10;;;3;;
6951;SDS011;3515;50.138;8.502;2022-07-05T10:15:51;8;;;2;;
6951;SDS011;3515;50.138;8.502;2022-07-05T10:18:17;7;;;2;;
6951;SDS011;3515;50.138;8.502;2022-07-05T10:20:42;7;;;2;;
6951;SDS011;3515;50.138;8.502;2022-07-05T10:23:07;8;;;2;;
6951;SDS011;3515;50.138;8.502;2022-07-05T10:25:32;9;;;3;;
6951;SDS011;3515;50.138;8.502;2022-07-05T10:27:58;10;;;3;;
6951;SDS011;3515;50.138;8.502;2022-07-05T10:30:23;12;;;4;;
6951;SDS011;3515;50.138;8.502;2022-07-05T10:32:48;12;;;4;;
6951;SDS011;3515;50.138;8.502;2022-07-05T10:35:13;14;;;5;;
6951;SDS011;3515;50.138;8.502;2022-07-05T10:37:38;14;;;5;;
6951;SDS011;3515;50.138;8.502;2022-07-05T10:40:05;14;;;5;;
6951;SDS011;3515;50.138;8.502;2022-07-05T10:42:31;12;;;4;;
6951;SDS011;3515;50.138;8.502;2022-07-05T10:44:54;11;;;4;;
6951;SDS011;3515;50.138;8.502;2022-07-05T10:47:19;10;;;4;;
6951;SDS011;3515;50.138;8.502;2022-07-05T10:49:58;9;;;3;;
6951;SDS011;3515;50.138;8.502;2022-07-05T10:52:24;8;;;3;;
6951;SDS011;3515;50.138;8.502;2022-07-05T10:54:48;6;;;2;;
6951;SDS011;3515;50.138;8.502;2022-07-05T10:59:37;7;;;3;;
6951;SDS011;3515;50.138;8.502;2022-07-05T11:02:10;6;;;3;;
6951;SDS011;3515;50.138;8.502;2022-07-05T11:04:28;7;;;3;;
6951;SDS011;3515;50.138;8.502;2022-07-05T11:06:47;7;;;3;;
6951;SDS011;3515;50.138;8.502;2022-07-05T11:09:14;8;;;3;;
6951;SDS011;3515;50.138;8.502;2022-07-05T11:11:37;9;;;4;;
6951;SDS011;3515;50.138;8.502;2022-07-05T11:14:03;8;;;4;;
6951;SDS011;3515;50.138;8.502;2022-07-05T11:16:29;8;;;4;;
6951;SDS011;3515;50.138;8.502;2022-07-05T11:19:03;9;;;4;;
6951;SDS011;3515;50.138;8.502;2022-07-05T11:21:19;9;;;4;;
6951;SDS011;3515;50.138;8.502;2022-07-05T11:23:43;9;;;4;;
6951;SDS011;3515;50.138;8.502;2022-07-05T11:26:09;9;;;4;;
6951;SDS011;3515;50.138;8.502;2022-07-05T11:28:41;9;;;3;;
6951;SDS011;3515;50.138;8.502;2022-07-05T11:31:00;8;;;3;;
6951;SDS011;3515;50.138;8.502;2022-07-05T11:35:50;9;;;3;;
6951;SDS011;3515;50.138;8.502;2022-07-05T11:38:15;9;;;3;;
6951;SDS011;3515;50.138;8.502;2022-07-05T11:40:44;9;;;3;;
6951;SDS011;3515;50.138;8.502;2022-07-05T11:43:09;9;;;3;;
6951;SDS011;3515;50.138;8.502;2022-07-05T11:45:34;10;;;4;;
6951;SDS011;3515;50.138;8.502;2022-07-05T11:47:59;11;;;4;;
6951;SDS011;3515;50.138;8.502;2022-07-05T11:50:26;10;;;3;;
6951;SDS011;3515;50.138;8.502;2022-07-05T11:52:57;11;;;4;;
6951;SDS011;3515;50.138;8.502;2022-07-05T11:55:20;12;;;5;;
6951;SDS011;3515;50.138;8.502;2022-07-05T11:57:49;12;;;5;;
6951;SDS011;3515;50.138;8.502;2022-07-05T12:00:11;12;;;5;;
6951;SDS011;3515;50.138;8.502;2022-07-05T12:02:42;12;;;5;;
6951;SDS011;3515;50.138;8.502;2022-07-05T12:05:01;11;;;5;;
6951;SDS011;3515;50.138;8.502;2022-07-05T12:07:27;11;;;5;;
6951;SDS011;3515;50.138;8.502;2022-07-05T12:09:52;12;;;5;;
6951;SDS011;3515;50.138;8.502;2022-07-05T12:12:17;11;;;5;;
6951;SDS011;3515;50.138;8.502;2022-07-05T12:14:46;10;;;4;;
6951;SDS011;3515;50.138;8.502;2022-07-05T12:17:11;10;;;4;;
6951;SDS011;3515;50.138;8.502;2022-07-05T12:19:33;10;;;4;;
6951;SDS011;3515;50.138;8.502;2022-07-05T12:21:58;10;;;4;;
6951;SDS011;3515;50.138;8.502;2022-07-05T12:24:24;10;;;4;;
6951;SDS011;3515;50.138;8.502;2022-07-05T12:26:49;10;;;4;;
6951;SDS011;3515;50.138;8.502;2022-07-05T12:29:14;11;;;4;;
6951;SDS011;3515;50.138;8.502;2022-07-05T12:31:39;10;;;4;;
6951;SDS011;3515;50.138;8.502;2022-07-05T12:36:30;10;;;3;;
6951;SDS011;3515;50.138;8.502;2022-07-05T12:38:58;10;;;3;;
6951;SDS011;3515;50.138;8.502;2022-07-05T12:41:21;9;;;3;;
6951;SDS011;3515;50.138;8.502;2022-07-05T12:43:48;9;;;3;;
6951;SDS011;3515;50.138;8.502;2022-07-05T12:46:11;8;;;3;;
6951;SDS011;3515;50.138;8.502;2022-07-05T12:48:36;8;;;3;;
6951;SDS011;3515;50.138;8.502;2022-07-05T12:51:02;8;;;3;;
6951;SDS011;3515;50.138;8.502;2022-07-05T12:53:27;8;;;3;;
6951;SDS011;3515;50.138;8.502;2022-07-05T12:55:58;7;;;3;;
6951;SDS011;3515;50.138;8.502;2022-07-05T12:58:17;8;;;3;;
6951;SDS011;3515;50.138;8.502;2022-07-05T13:00:42;7;;;3;;
6951;SDS011;3515;50.138;8.502;2022-07-05T13:03:13;8;;;3;;
6951;SDS011;3515;50.138;8.502;2022-07-05T13:05:38;9;;;4;;
6951;SDS011;3515;50.138;8.502;2022-07-05T13:08:03;9;;;4;;
6951;SDS011;3515;50.138;8.502;2022-07-05T13:10:29;9;;;4;;
6951;SDS011;3515;50.138;8.502;2022-07-05T13:12:54;9;;;4;;
6951;SDS011;3515;50.138;8.502;2022-07-05T13:15:19;9;;;3;;
6951;SDS011;3515;50.138;8.502;2022-07-05T13:17:44;11;;;4;;
6951;SDS011;3515;50.138;8.502;2022-07-05T13:20:10;12;;;5;;
6951;SDS011;3515;50.138;8.502;2022-07-05T13:22:35;12;;;5;;
6951;SDS011;3515;50.138;8.502;2022-07-05T13:25:00;12;;;5;;
6951;SDS011;3515;50.138;8.502;2022-07-05T13:27:25;12;;;4;;
6951;SDS011;3515;50.138;8.502;2022-07-05T13:29:51;12;;;4;;
6951;SDS011;3515;50.138;8.502;2022-07-05T13:32:16;13;;;5;;
6951;SDS011;3515;50.138;8.502;2022-07-05T13:34:41;13;;;5;;
6951;SDS011;3515;50.138;8.502;2022-07-05T13:37:06;11;;;5;;
6951;SDS011;3515;50.138;8.502;2022-07-05T13:39:32;10;;;4;;
6951;SDS011;3515;50.138;8.502;2022-07-05T13:41:57;9;;;4;;
6951;SDS011;3515;50.138;8.502;2022-07-05T13:44:22;9;;;4;;
6951;SDS011;3515;50.138;8.502;2022-07-05T13:46:48;8;;;4;;
6951;SDS011;3515;50.138;8.502;2022-07-05T13:49:13;8;;;4;;
6951;SDS011;3515;50.138;8.502;2022-07-05T13:51:38;7;;;3;;
6951;SDS011;3515;50.138;8.502;2022-07-05T13:54:03;8;;;3;;
6951;SDS011;3515;50.138;8.502;2022-07-05T13:56:29;7;;;3;;
6951;SDS011;3515;50.138;8.502;2022-07-05T13:58:54;7;;;3;;
6951;SDS011;3515;50.138;8.502;2022-07-05T14:01:19;7;;;3;;
6951;SDS011;3515;50.138;8.502;2022-07-05T14:03:44;8;;;3;;
6951;SDS011;3515;50.138;8.502;2022-07-05T14:06:09;8;;;3;;
6951;SDS011;3515;50.138;8.502;2022-07-05T14:08:35;8;;;3;;
6951;SDS011;3515;50.138;8.502;2022-07-05T14:11:00;9;;;3;;
6951;SDS011;3515;50.138;8.502;2022-07-05T14:13:25;9;;;3;;
6951;SDS011;3515;50.138;8.502;2022-07-05T14:15:50;9;;;3;;
6951;SDS011;3515;50.138;8.502;2022-07-05T14:18:16;10;;;3;;
6951;SDS011;3515;50.138;8.502;2022-07-05T14:20:41;9;;;3;;
6951;SDS011;3515;50.138;8.502;2022-07-05T14:23:06;9;;;3;;
6951;SDS011;3515;50.138;8.502;2022-07-05T14:25:32;9;;;3;;
6951;SDS011;3515;50.138;8.502;2022-07-05T14:27:57;8;;;3;;
6951;SDS011;3515;50.138;8.502;2022-07-05T14:30:22;8;;;3;;
6951;SDS011;3515;50.138;8.502;2022-07-05T14:32:47;8;;;3;;
6951;SDS011;3515;50.138;8.502;2022-07-05T14:35:12;7;;;3;;
6951;SDS011;3515;50.138;8.502;2022-07-05T14:37:38;7;;;3;;
6951;SDS011;3515;50.138;8.502;2022-07-05T14:40:04;8;;;3;;
6951;SDS011;3515;50.138;8.502;2022-07-05T14:42:28;9;;;3;;
6951;SDS011;3515;50.138;8.502;2022-07-05T14:44:54;9;;;3;;
6951;SDS011;3515;50.138;8.502;2022-07-05T14:47:19;10;;;4;;
6951;SDS011;3515;50.138;8.502;2022-07-05T14:49:44;10;;;4;;
6951;SDS011;3515;50.138;8.502;2022-07-05T14:59:59;10;;;5;;
6951;SDS011;3515;50.138;8.502;2022-07-05T15:02:11;9;;;4;;
6951;SDS011;3515;50.138;8.502;2022-07-05T15:04:36;9;;;4;;
6951;SDS011;3515;50.138;8.502;2022-07-05T15:07:01;9;;;4;;
6951;SDS011;3515;50.138;8.502;2022-07-05T15:09:26;9;;;4;;
6951;SDS011;3515;50.138;8.502;2022-07-05T15:11:52;9;;;4;;
6951;SDS011;3515;50.138;8.502;2022-07-05T15:14:17;9;;;4;;
6951;SDS011;3515;50.138;8.502;2022-07-05T15:16:42;8;;;4;;
6951;SDS011;3515;50.138;8.502;2022-07-05T15:19:08;8;;;3;;
6951;SDS011;3515;50.138;8.502;2022-07-05T15:21:33;8;;;3;;
6951;SDS011;3515;50.138;8.502;2022-07-05T15:23:58;8;;;3;;
6951;SDS011;3515;50.138;8.502;2022-07-05T15:26:23;8;;;4;;
6951;SDS011;3515;50.138;8.502;2022-07-05T15:28:49;9;;;3;;
6951;SDS011;3515;50.138;8.502;2022-07-05T15:31:14;7;;;3;;
6951;SDS011;3515;50.138;8.502;2022-07-05T15:33:39;8;;;3;;
6951;SDS011;3515;50.138;8.502;2022-07-05T15:36:04;8;;;3;;
6951;SDS011;3515;50.138;8.502;2022-07-05T15:38:30;8;;;3;;
6951;SDS011;3515;50.138;8.502;2022-07-05T15:40:55;8;;;3;;
6951;SDS011;3515;50.138;8.502;2022-07-05T15:43:20;8;;;3;;
6951;SDS011;3515;50.138;8.502;2022-07-05T15:45:45;7;;;3;;
6951;SDS011;3515;50.138;8.502;2022-07-05T15:48:13;8;;;3;;
6951;SDS011;3515;50.138;8.502;2022-07-05T15:50:38;8;;;3;;
6951;SDS011;3515;50.138;8.502;2022-07-05T15:53:03;8;;;3;;
6951;SDS011;3515;50.138;8.502;2022-07-05T15:55:34;8;;;3;;
6951;SDS011;3515;50.138;8.502;2022-07-05T15:57:59;9;;;3;;
6951;SDS011;3515;50.138;8.502;2022-07-05T16:00:24;8;;;3;;
6951;SDS011;3515;50.138;8.502;2022-07-05T16:02:49;9;;;3;;
6951;SDS011;3515;50.138;8.502;2022-07-05T16:05:14;9;;;3;;
6951;SDS011;3515;50.138;8.502;2022-07-05T16:07:40;8;;;3;;
6951;SDS011;3515;50.138;8.502;2022-07-05T16:10:05;8;;;3;;
6951;SDS011;3515;50.138;8.502;2022-07-05T16:12:30;9;;;3;;
6951;SDS011;3515;50.138;8.502;2022-07-05T16:14:56;10;;;3;;
6951;SDS011;3515;50.138;8.502;2022-07-05T16:17:21;9;;;3;;
6951;SDS011;3515;50.138;8.502;2022-07-05T16:19:46;10;;;3;;
6951;SDS011;3515;50.138;8.502;2022-07-05T16:22:11;9;;;3;;
6951;SDS011;3515;50.138;8.502;2022-07-05T16:24:37;10;;;3;;
6951;SDS011;3515;50.138;8.502;2022-07-05T16:27:03;10;;;4;;
6951;SDS011;3515;50.138;8.502;2022-07-05T16:29:27;10;;;4;;
6951;SDS011;3515;50.138;8.502;2022-07-05T16:31:53;9;;;4;;
6951;SDS011;3515;50.138;8.502;2022-07-05T16:34:18;8;;;3;;
6951;SDS011;3515;50.138;8.502;2022-07-05T16:36:43;8;;;3;;
6951;SDS011;3515;50.138;8.502;2022-07-05T16:39:08;8;;;3;;
6951;SDS011;3515;50.138;8.502;2022-07-05T16:41:34;7;;;3;;
6951;SDS011;3515;50.138;8.502;2022-07-05T16:43:59;7;;;3;;